GP del Portogallo

MX 2019. Cairoli e Olsen vincono le qualifiche in Portogallo

- Cairoli domina le qualifiche davanti a Gajser e a un fantastico Lupino. Olsen è il più veloce nella MX2, alle sue spalle Jacobi e Prado
MX 2019. Cairoli e Olsen vincono le qualifiche in Portogallo

La terra rossa del GP del Portogallo pareva potesse essere terreno di caccia per Tim Gajser, che si era preso la soddisfazione di soffiare a Tony Cairoli il miglior crono per tre centesimi di secondo. Ma una volta arrivata la batteria di qualificazione l’ufficiale KTM ha messo subito in chiaro che anche questa volta lo sloveno avrebbe dovuto sudare sette camicie per fare meglio di lui.

 

Lo ha sottolineato con la decisa rimonta dalla terza piazza, con una velocità pazzesca ed una precisione chirurgica con cui a metà gara ha rotto gli indugi scavalcando il pilota HRC e tenendolo poi a bada sino alla fine senza patemi. Un bello scontro, seguito a notevole distanza (una trentina di secondi) dal formidabile Alex Lupino che ha tenuto stretta la 3ª piazza per tutto il tempo tagliando il traguardo davanti a Clement Desalle e Gautier Paulin protagonista in prova di una spettacolare caduta dalla quale ne è uscito fortunatamente indenne.

 

Solo 8° Romain Febvre, al suo rientro dopo la frattura ad una caviglia nel GP dell’Argentina, penalizzato da una scivolata nelle prime battute di gara, mentre Ivo Monticelli dopo un avvio al 5° posto ha chiuso 22° per i postumi della caduta di Mantova.

La MX2 ha fatto rizzare i capelli, grazie all’acceso duello tra il battistrada Henry Jacobi e Jorge Prado perdurato per cinque giri sino a quando l’autore della pole Thomas Olsen li ha raggiunti e passati entrambi nella stessa curva e allo stesso tempo. Non riuscendo a tenere il passo dell’ufficiale Husqvarna, il tedesco e lo spagnolo hanno poi chiuso nell’ordine una quindicina di secondi prima di Mitchell Evans.

 

Bene anche Michele Cervellin, 8° dopo aver guadagnato una posizione a metà gara. La manche EMX2T è andata all’olandese Mike Kras, quella WMX alla neozelandese Courtney Duncan.

 

CLASSIFICHE

MXGP - Qualifying Race - Classification

Pos Nr Rider Nat. Fed. Bike Time laps Diff. First Diff. Prev. Bestlaptime in lap Speed
1 222 Cairoli, Antonio ITA FMI KTM 25:05.809 13 0:00.000 0:00.000 1:47.726 9 54.4
2 243 Gajser, Tim SLO AMZS Honda 25:08.447 13 0:02.638 0:02.638 1:48.184 11 54.2
3 77 Lupino, Alessandro ITA FMI Kawasaki 25:36.047 13 0:30.238 0:27.600 1:50.460 3 53.1
4 25 Desalle, Clement BEL FMB Kawasaki 25:38.638 13 0:32.829 0:02.591 1:49.629 12 53.5
5 21 Paulin, Gautier FRA MCM Yamaha 25:40.700 13 0:34.891 0:02.062 1:50.252 11 53.2
6 4 Tonus, Arnaud SUI FMS Yamaha 25:41.597 13 0:35.788 0:00.897 1:49.933 10 53.3
7 33 Lieber, Julien BEL FMB Kawasaki 25:49.516 13 0:43.707 0:07.919 1:50.338 11 53.1
8 461 Febvre, Romain FRA FFM Yamaha 25:55.966 13 0:50.157 0:06.450 1:50.429 6 53.1
9 41 Jonass, Pauls LAT LAMSF Husqvarna 25:58.170 13 0:52.361 0:02.204 1:50.937 11 52.8
10 100 Searle, Tommy GBR ACU Kawasaki 25:59.955 13 0:54.146 0:01.785 1:51.308 4 52.7
11 7 Leok, Tanel EST EMF Husqvarna 26:00.370 13 0:54.561 0:00.415 1:51.323 10 52.7
12 24 Simpson, Shaun GBR ACU KTM 26:02.311 13 0:56.502 0:01.941 1:51.564 13 52.5
13 91 Seewer, Jeremy SUI FMS Yamaha 26:02.605 13 0:56.796 0:00.294 1:50.771 6 52.9
14 259 Coldenhoff, Glenn NED KNMV KTM 26:04.511 13 0:58.702 0:01.906 1:51.502 6 52.6
15 911 Tixier, Jordi FRA FFM KTM 26:06.605 13 1:00.796 0:02.094 1:51.556 12 52.6
16 22 Strijbos, Kevin BEL FMB Yamaha 26:07.345 13 1:01.536 0:00.740 1:50.934 11 52.8
17 6 Paturel, Benoit FRA FFM Kawasaki 26:08.072 13 1:02.263 0:00.727 1:51.174 11 52.7
18 27 Jasikonis, Arminas LTU LMSF Husqvarna 26:08.575 13 1:02.766 0:00.503 1:50.759 4 52.9
19 89 Van Horebeek, Jeremy BEL FMB Honda 26:12.955 13 1:07.146 0:04.380 1:51.203 5 52.7
20 92 Valentin, Ander ESP RFME Husqvarna 26:22.840 13 1:17.031 0:09.885 1:51.872 10 52.4

 

MX2 - Qualifying Race - Classification

Pos Nr Rider Nat. Fed. Bike Time laps Diff. First Diff. Prev. Bestlaptime in lap Speed
1 19 Olsen, Thomas Kjer DEN DMU Husqvarna 23:52.428 12 0:00.000 0:00.000 1:49.857 7 53.4
2 29 Jacobi, Henry GER DMSB Kawasaki 23:55.851 12 0:03.423 0:03.423 1:50.693 7 53
3 61 Prado, Jorge ESP RFME KTM 23:56.798 12 0:04.370 0:00.947 1:50.693 3 53
4 43 Evans, Mitchell AUS MA Honda 24:10.352 12 0:17.924 0:13.554 1:50.677 7 53
5 172 Boisrame, Mathys FRA FFM Honda 24:15.226 12 0:22.798 0:04.874 1:51.685 7 52.5
6 39 Van De Moosdijk, Roan NED KNMV Kawasaki 24:17.225 12 0:24.797 0:01.999 1:52.261 7 52.2
7 225 Strubhart Moreau, Brian FRA FFM Kawasaki 24:20.070 12 0:27.642 0:02.845 1:51.926 10 52.4
8 747 Cervellin, Michele ITA FMI Yamaha 24:22.320 12 0:29.892 0:02.250 1:52.059 8 52.3
9 57 Sanayei, Darian USA ACU Kawasaki 24:23.942 12 0:31.514 0:01.622 1:52.663 11 52
10 811 Sterry, Adam GBR ACU Kawasaki 24:25.476 12 0:33.048 0:01.534 1:52.811 8 52
11 193 Geerts, Jago BEL FMB Yamaha 24:26.770 12 0:34.342 0:01.294 1:52.134 7 52.3
12 14 Beaton, Jed AUS MA Husqvarna 24:27.627 12 0:35.199 0:00.857 1:52.485 10 52.1
13 66 Larranaga Olano, Iker ESP RFME KTM 24:29.152 12 0:36.724 0:01.525 1:52.675 12 52
14 98 Vaessen, Bas NED KNMV KTM 24:33.459 12 0:41.031 0:04.307 1:52.605 7 52.1
15 959 Renaux, Maxime FRA FFM Yamaha 24:35.139 12 0:42.711 0:01.680 1:52.895 7 51.9
16 32 Van doninck, Brent BEL FMB Honda 24:37.849 12 0:45.421 0:02.710 1:52.391 8 52.2
17 931 Zanotti, Andrea SMR FSM KTM 24:38.672 12 0:46.244 0:00.823 1:53.182 6 51.8
18 35 Harrison, Mitchell USA AMA Kawasaki 24:38.843 12 0:46.415 0:00.171 1:52.209 12 52.2
19 28 Vialle, Tom FRA FFM KTM 24:45.760 12 0:53.332 0:06.917 1:53.567 8 51.6
20 919 Watson, Ben GBR ACU Yamaha 24:47.350 12 0:54.922 0:01.590 1:53.028 6 51.9

 

  • Vannu01, Misano Adriatico (RN)

    Grande Tony e grande lupo! 💪👍🤟
Inserisci il tuo commento